Time;durP1;ratioP1;P1;durP2;ratioP2;P2;SDS_P1;SDS_P2;PMS_P1;PMS_P2;Temp;Humidity;BMP_temperature;BMP_pressure;BME280_temperature;BME280_humidity;BME280_pressure;Samples;Min_cycle;Max_cycle;Signal;HPM_P1;HPM_P2
2023/02/03 00:00:08;;;;;;;3.65;1.52;;;;;;;;;;10109060;29;20617;-83
2023/02/03 00:05:16;;;;;;;2.70;1.50;;;;;;;;;;10104874;29;20045;-83
2023/02/03 00:10:21;;;;;;;4.13;1.98;;;;;;;;;;10101942;29;20053;-82
2023/02/03 00:15:25;;;;;;;4.20;1.90;;;;;;;;;;10107311;29;20079;-82
2023/02/03 00:20:29;;;;;;;3.30;1.60;;;;;;;;;;10102086;29;20082;-82
2023/02/03 00:25:34;;;;;;;2.75;1.73;;;;;;;;;;10102069;29;20068;-81
2023/02/03 00:30:37;;;;;;;2.60;1.40;;;;;;;;;;10103655;29;20072;-81
2023/02/03 00:35:41;;;;;;;3.20;1.48;;;;;;;;;;10103312;29;20053;-82
2023/02/03 00:40:52;;;;;;;2.65;1.73;;;;;;;;;;10101301;29;20051;-81
2023/02/03 00:45:55;;;;;;;3.78;1.85;;;;;;;;;;10101748;29;20041;-82
2023/02/03 00:50:59;;;;;;;3.83;1.40;;;;;;;;;;10103391;29;20199;-82
2023/02/03 00:56:11;;;;;;;3.78;1.85;;;;;;;;;;10105364;29;20033;-83
2023/02/03 01:01:14;;;;;;;3.53;1.80;;;;;;;;;;10108889;29;20049;-82
2023/02/03 01:06:20;;;;;;;4.25;2.03;;;;;;;;;;10122067;29;20100;-83
2023/02/03 01:11:26;;;;;;;4.75;1.75;;;;;;;;;;10106814;29;20052;-82
2023/02/03 01:16:35;;;;;;;2.42;1.50;;;;;;;;;;10106024;29;20761;-83
2023/02/03 01:21:38;;;;;;;4.78;2.10;;;;;;;;;;10109550;29;20147;-82
2023/02/03 01:26:43;;;;;;;4.90;1.95;;;;;;;;;;10115930;29;20059;-83
2023/02/03 01:31:46;;;;;;;3.47;1.70;;;;;;;;;;10117809;29;20566;-83
2023/02/03 01:36:50;;;;;;;3.00;1.50;;;;;;;;;;10134920;29;20067;-83
2023/02/03 01:41:55;;;;;;;2.40;1.58;;;;;;;;;;10113658;29;20052;-83
2023/02/03 01:46:59;;;;;;;3.30;1.93;;;;;;;;;;10110441;29;20910;-82
2023/02/03 01:52:05;;;;;;;3.70;1.23;;;;;;;;;;10122044;29;20052;-82
2023/02/03 01:57:17;;;;;;;4.43;1.67;;;;;;;;;;10115873;29;20047;-83
2023/02/03 02:02:21;;;;;;;1.48;1.25;;;;;;;;;;10124174;29;20328;-83
2023/02/03 02:07:26;;;;;;;1.80;1.52;;;;;;;;;;10120688;29;20421;-83
2023/02/03 02:12:31;;;;;;;4.43;1.38;;;;;;;;;;10109643;29;20139;-83
2023/02/03 02:17:57;;;;;;;2.35;1.35;;;;;;;;;;10133687;29;20037;-83
2023/02/03 02:23:40;;;;;;;4.60;1.13;;;;;;;;;;10112108;29;20510;-83
2023/02/03 02:29:07;;;;;;;4.35;1.20;;;;;;;;;;10109359;29;20048;-83
2023/02/03 02:34:19;;;;;;;1.35;1.00;;;;;;;;;;10107882;29;20067;-82
2023/02/03 02:39:29;;;;;;;3.63;1.45;;;;;;;;;;10118047;29;20040;-83
2023/02/03 02:44:41;;;;;;;6.32;1.50;;;;;;;;;;10099066;29;20479;-82
2023/02/03 02:49:56;;;;;;;1.77;1.00;;;;;;;;;;10102593;29;20045;-82
2023/02/03 02:55:07;;;;;;;2.10;1.27;;;;;;;;;;10111202;29;20047;-82
2023/02/03 03:00:13;;;;;;;1.30;1.00;;;;;;;;;;10094749;29;20068;-82
2023/02/03 03:05:19;;;;;;;2.83;1.23;;;;;;;;;;10110630;29;20074;-82
2023/02/03 03:10:31;;;;;;;2.33;1.30;;;;;;;;;;10089637;29;20459;-83
2023/02/03 03:15:35;;;;;;;3.53;1.17;;;;;;;;;;10095462;29;20041;-82
2023/02/03 03:20:43;;;;;;;3.72;1.25;;;;;;;;;;10095804;29;20055;-83
2023/02/03 03:25:49;;;;;;;1.00;0.90;;;;;;;;;;10093410;29;20048;-83
2023/02/03 03:30:53;;;;;;;1.33;1.00;;;;;;;;;;10095807;29;20041;-82
2023/02/03 03:36:02;;;;;;;4.18;1.00;;;;;;;;;;10097647;29;20066;-83
2023/02/03 03:41:15;;;;;;;1.83;1.08;;;;;;;;;;10094489;29;20053;-82
2023/02/03 03:46:21;;;;;;;1.95;0.95;;;;;;;;;;10094698;29;20052;-83
2023/02/03 03:51:30;;;;;;;1.10;0.85;;;;;;;;;;10099778;29;20131;-83
2023/02/03 03:56:40;;;;;;;1.35;1.10;;;;;;;;;;10103322;29;20072;-83
2023/02/03 04:01:43;;;;;;;2.05;1.05;;;;;;;;;;10105163;29;20044;-83
2023/02/03 04:06:48;;;;;;;1.58;1.30;;;;;;;;;;10104836;29;20418;-83
2023/02/03 04:12:05;;;;;;;1.17;0.80;;;;;;;;;;10132917;29;20535;-84
2023/02/03 04:17:09;;;;;;;1.80;1.20;;;;;;;;;;10110949;29;20123;-83
2023/02/03 04:22:13;;;;;;;1.38;1.10;;;;;;;;;;10104807;29;20051;-82
2023/02/03 04:27:17;;;;;;;4.25;1.55;;;;;;;;;;10104748;29;20048;-83
2023/02/03 04:32:20;;;;;;;1.88;1.30;;;;;;;;;;10108906;29;20052;-83
2023/02/03 04:37:26;;;;;;;1.80;1.08;;;;;;;;;;10107003;29;20047;-83
2023/02/03 04:42:29;;;;;;;4.13;1.10;;;;;;;;;;10107094;29;20514;-82
2023/02/03 04:47:32;;;;;;;3.97;1.00;;;;;;;;;;10103067;29;20131;-81
2023/02/03 04:52:37;;;;;;;1.55;0.77;;;;;;;;;;10105133;29;20048;-83
2023/02/03 04:57:41;;;;;;;1.02;0.93;;;;;;;;;;10101394;29;20075;-84
2023/02/03 05:02:44;;;;;;;3.83;1.30;;;;;;;;;;10100439;29;20139;-82
2023/02/03 05:07:49;;;;;;;1.75;0.98;;;;;;;;;;10096800;29;20040;-84
2023/02/03 05:12:52;;;;;;;2.17;1.08;;;;;;;;;;10101411;29;20044;-82
2023/02/03 05:17:56;;;;;;;2.63;1.00;;;;;;;;;;10115500;29;20133;-81
2023/02/03 05:23:01;;;;;;;1.23;1.10;;;;;;;;;;10100002;29;20418;-84
2023/02/03 05:28:04;;;;;;;2.67;1.30;;;;;;;;;;10099319;29;20045;-83
2023/02/03 05:33:08;;;;;;;3.35;1.05;;;;;;;;;;10104441;29;20052;-83
2023/02/03 05:38:12;;;;;;;2.05;0.90;;;;;;;;;;10103475;29;20644;-85
2023/02/03 05:43:16;;;;;;;4.38;1.00;;;;;;;;;;10111134;29;20103;-84
2023/02/03 05:48:19;;;;;;;1.83;1.20;;;;;;;;;;10105477;29;20071;-83
2023/02/03 05:53:24;;;;;;;2.25;1.38;;;;;;;;;;10104050;29;20458;-83
2023/02/03 05:58:28;;;;;;;2.22;0.90;;;;;;;;;;10107913;29;20116;-83
2023/02/03 06:03:31;;;;;;;1.83;1.33;;;;;;;;;;10114993;29;20203;-83
2023/02/03 06:08:36;;;;;;;2.97;1.05;;;;;;;;;;10114074;29;20131;-84
2023/02/03 06:13:39;;;;;;;2.28;1.33;;;;;;;;;;10114930;29;20052;-83
2023/02/03 06:18:42;;;;;;;3.90;1.42;;;;;;;;;;10119843;29;20049;-81
2023/02/03 06:23:47;;;;;;;1.67;1.00;;;;;;;;;;10104948;29;20048;-80
2023/02/03 06:28:50;;;;;;;3.05;1.33;;;;;;;;;;10100692;29;20044;-80
2023/02/03 06:33:56;;;;;;;2.50;1.05;;;;;;;;;;10105773;29;20060;-81
2023/02/03 06:39:00;;;;;;;3.00;1.13;;;;;;;;;;10098465;29;20506;-81
2023/02/03 06:44:04;;;;;;;2.55;1.23;;;;;;;;;;10105890;29;20055;-82
2023/02/03 06:49:11;;;;;;;3.72;1.25;;;;;;;;;;10112557;29;20116;-82
2023/02/03 06:54:15;;;;;;;2.60;1.13;;;;;;;;;;10107193;29;20044;-82
2023/02/03 06:59:19;;;;;;;4.40;1.88;;;;;;;;;;10134383;29;20049;-82
2023/02/03 07:04:22;;;;;;;2.17;1.40;;;;;;;;;;10104701;29;20053;-83
2023/02/03 07:09:27;;;;;;;2.35;1.20;;;;;;;;;;10098889;29;20635;-82
2023/02/03 07:14:30;;;;;;;1.98;1.20;;;;;;;;;;10099809;29;20624;-83
2023/02/03 07:19:34;;;;;;;2.88;1.30;;;;;;;;;;10104713;29;20057;-82
2023/02/03 07:24:38;;;;;;;1.80;0.95;;;;;;;;;;10103781;29;20044;-83
2023/02/03 07:29:42;;;;;;;3.63;1.23;;;;;;;;;;10112514;29;20059;-83
2023/02/03 07:34:45;;;;;;;3.10;1.10;;;;;;;;;;10112167;29;20048;-82
2023/02/03 07:39:50;;;;;;;1.70;1.13;;;;;;;;;;10113755;29;20437;-84
2023/02/03 07:44:53;;;;;;;1.77;1.10;;;;;;;;;;10111128;29;20428;-84
2023/02/03 07:49:56;;;;;;;3.63;1.20;;;;;;;;;;10113768;29;20051;-83
2023/02/03 07:55:01;;;;;;;5.32;1.30;;;;;;;;;;10122836;29;20051;-84
2023/02/03 08:00:05;;;;;;;3.47;1.30;;;;;;;;;;10118484;29;20051;-84
2023/02/03 08:05:18;;;;;;;2.38;1.25;;;;;;;;;;10118548;29;20048;-83
2023/02/03 08:10:23;;;;;;;2.35;1.10;;;;;;;;;;10120503;29;20461;-84
2023/02/03 08:15:27;;;;;;;1.38;1.10;;;;;;;;;;10133544;29;20056;-86
2023/02/03 08:20:30;;;;;;;1.80;1.00;;;;;;;;;;10243864;23;20061;-86
2023/02/03 08:25:35;;;;;;;1.75;0.98;;;;;;;;;;10288776;28;20573;-87
2023/02/03 08:30:39;;;;;;;4.10;1.60;;;;;;;;;;10277964;28;20090;-86
2023/02/03 08:35:46;;;;;;;3.38;1.30;;;;;;;;;;10277780;28;20131;-86
2023/02/03 08:40:51;;;;;;;4.68;1.23;;;;;;;;;;10278969;28;20057;-86
2023/02/03 08:45:55;;;;;;;1.50;0.90;;;;;;;;;;10278373;28;20039;-86
2023/02/03 08:50:58;;;;;;;2.22;1.15;;;;;;;;;;10278811;28;20134;-85
2023/02/03 08:56:06;;;;;;;2.88;1.10;;;;;;;;;;10278904;28;20160;-86
2023/02/03 09:01:11;;;;;;;2.45;1.10;;;;;;;;;;10277886;28;20047;-85
2023/02/03 09:06:15;;;;;;;2.80;0.93;;;;;;;;;;10279183;28;20043;-85
2023/02/03 09:11:21;;;;;;;1.23;0.77;;;;;;;;;;10279151;28;20114;-86
2023/02/03 09:16:25;;;;;;;2.00;0.85;;;;;;;;;;10278799;28;20049;-85
2023/02/03 09:21:28;;;;;;;2.35;1.08;;;;;;;;;;10279746;28;20047;-87
2023/02/03 09:26:36;;;;;;;3.72;0.90;;;;;;;;;;10285251;28;20047;-88
2023/02/03 09:31:40;;;;;;;1.60;0.70;;;;;;;;;;10287457;28;20138;-89
2023/02/03 09:36:43;;;;;;;3.40;1.05;;;;;;;;;;10269864;28;20092;-87
2023/02/03 09:42:08;;;;;;;2.92;1.00;;;;;;;;;;10284707;28;20093;-87
2023/02/03 09:47:15;;;;;;;2.53;1.02;;;;;;;;;;10272026;28;20031;-89
2023/02/03 09:52:21;;;;;;;5.05;1.33;;;;;;;;;;10263033;28;20085;-86
2023/02/03 09:57:28;;;;;;;1.67;0.80;;;;;;;;;;10253592;28;20590;-85
2023/02/03 10:02:50;;;;;;;1.70;0.82;;;;;;;;;;10255533;28;20170;-86
2023/02/03 10:08:02;;;;;;;1.95;0.80;;;;;;;;;;10254599;28;20049;-86
2023/02/03 10:13:15;;;;;;;3.45;1.10;;;;;;;;;;10252677;28;20533;-86
2023/02/03 10:18:22;;;;;;;4.55;1.30;;;;;;;;;;10253161;28;20054;-86
2023/02/03 10:23:31;;;;;;;5.40;1.45;;;;;;;;;;10253415;28;20039;-87
2023/02/03 10:28:40;;;;;;;4.15;1.20;;;;;;;;;;10252385;28;20820;-86
2023/02/03 10:33:44;;;;;;;2.40;1.17;;;;;;;;;;10255148;28;20050;-85
2023/02/03 10:38:56;;;;;;;2.20;1.25;;;;;;;;;;10252510;28;20692;-86
2023/02/03 10:44:05;;;;;;;3.85;1.27;;;;;;;;;;10252629;28;20042;-86
2023/02/03 10:49:11;;;;;;;4.28;1.38;;;;;;;;;;10254200;28;20039;-86
2023/02/03 10:54:29;;;;;;;2.70;1.33;;;;;;;;;;10253614;28;20050;-85
2023/02/03 10:59:36;;;;;;;4.05;2.05;;;;;;;;;;10257287;28;20059;-86
2023/02/03 11:04:40;;;;;;;2.45;1.30;;;;;;;;;;10260436;28;20062;-86
2023/02/03 11:09:43;;;;;;;4.20;1.10;;;;;;;;;;10260491;28;20046;-86
2023/02/03 11:14:50;;;;;;;2.63;0.98;;;;;;;;;;10258647;28;20043;-87
2023/02/03 11:19:55;;;;;;;4.53;1.60;;;;;;;;;;10261097;28;20753;-86
2023/02/03 11:24:59;;;;;;;2.08;0.80;;;;;;;;;;10261050;28;20070;-85
2023/02/03 11:30:15;;;;;;;4.03;1.48;;;;;;;;;;10260756;28;20039;-84
2023/02/03 11:35:22;;;;;;;2.22;0.88;;;;;;;;;;10264328;28;20074;-87
2023/02/03 11:40:29;;;;;;;2.22;1.00;;;;;;;;;;10271058;28;20416;-88
2023/02/03 11:45:38;;;;;;;;;;;;;;;;;;10269475;28;20074;-87
2023/02/03 11:50:46;;;;;;;1.67;0.90;;;;;;;;;;10266630;28;20200;-89
2023/02/03 11:55:59;;;;;;;2.65;0.98;;;;;;;;;;10268308;28;20054;-92
2023/02/03 12:01:10;;;;;;;2.63;0.98;;;;;;;;;;10266932;28;20039;-87
2023/02/03 12:06:29;;;;;;;2.28;0.82;;;;;;;;;;10284670;28;20043;-91
2023/02/03 12:11:48;;;;;;;0.80;0.77;;;;;;;;;;10271976;28;20468;-88
2023/02/03 12:17:22;;;;;;;3.10;0.80;;;;;;;;;;10265115;28;20106;-91
2023/02/03 12:22:34;;;;;;;3.15;1.23;;;;;;;;;;10258012;28;20052;-85
2023/02/03 12:27:48;;;;;;;0.90;0.63;;;;;;;;;;10254887;28;20035;-86
2023/02/03 12:32:58;;;;;;;1.65;0.80;;;;;;;;;;10268662;28;20042;-87
2023/02/03 12:38:06;;;;;;;1.10;0.60;;;;;;;;;;10257648;28;20046;-86
2023/02/03 12:43:22;;;;;;;2.70;0.70;;;;;;;;;;10258130;28;20094;-86
2023/02/03 12:48:33;;;;;;;1.27;0.70;;;;;;;;;;10258260;28;20042;-85
2023/02/03 12:53:42;;;;;;;2.28;0.63;;;;;;;;;;10257863;28;20050;-85
2023/02/03 12:58:50;;;;;;;2.30;0.98;;;;;;;;;;10261932;28;20063;-87
2023/02/03 13:04:01;;;;;;;1.20;0.70;;;;;;;;;;10266164;28;20141;-87
2023/02/03 13:09:21;;;;;;;2.85;0.82;;;;;;;;;;10269176;28;20106;-88
2023/02/03 13:14:33;;;;;;;2.75;0.85;;;;;;;;;;10260527;28;20546;-88
2023/02/03 13:19:43;;;;;;;1.02;0.80;;;;;;;;;;10268233;28;20142;-87
2023/02/03 13:24:55;;;;;;;1.42;0.80;;;;;;;;;;10265403;28;20073;-88
2023/02/03 13:30:13;;;;;;;0.88;0.70;;;;;;;;;;10265571;28;20062;-90
2023/02/03 13:35:40;;;;;;;2.17;1.30;;;;;;;;;;10266530;28;20069;-88
2023/02/03 13:40:54;;;;;;;1.52;1.42;;;;;;;;;;10262626;28;20399;-91
2023/02/03 13:45:59;;;;;;;1.20;0.90;;;;;;;;;;10272170;28;20051;-87
2023/02/03 13:51:13;;;;;;;2.72;0.77;;;;;;;;;;10271596;28;20455;-87
2023/02/03 13:56:21;;;;;;;2.30;1.30;;;;;;;;;;10272507;28;20534;-91
2023/02/03 14:01:32;;;;;;;1.65;1.20;;;;;;;;;;10265593;28;20086;-87
2023/02/03 14:06:59;;;;;;;0.55;0.55;;;;;;;;;;10272034;28;20047;-90
2023/02/03 14:12:33;;;;;;;2.67;1.00;;;;;;;;;;10269690;28;20106;-86
2023/02/03 14:18:18;;;;;;;1.63;1.27;;;;;;;;;;10291618;28;20043;-87
2023/02/03 14:23:29;;;;;;;1.50;0.90;;;;;;;;;;10220875;28;20130;-86
2023/02/03 14:28:45;;;;;;;2.30;0.73;;;;;;;;;;10259985;28;20047;-86
2023/02/03 14:34:11;;;;;;;1.00;0.88;;;;;;;;;;10263512;28;20460;-87
2023/02/03 14:39:34;;;;;;;;;;;;;;;;;;10260401;28;20467;-88
2023/02/03 14:44:47;;;;;;;0.50;0.50;;;;;;;;;;10276168;28;20161;-85
2023/02/03 14:50:05;;;;;;;1.45;0.90;;;;;;;;;;10253691;28;20042;-84
2023/02/03 14:55:27;;;;;;;2.28;1.23;;;;;;;;;;10253860;28;20475;-85
2023/02/03 15:00:36;;;;;;;1.67;1.00;;;;;;;;;;10262180;28;20175;-86
2023/02/03 15:05:41;;;;;;;2.35;1.58;;;;;;;;;;10257802;28;20059;-87
2023/02/03 15:10:45;;;;;;;2.73;1.70;;;;;;;;;;10262789;28;20149;-87
2023/02/03 15:15:52;;;;;;;1.30;1.02;;;;;;;;;;10252845;28;20432;-85
2023/02/03 15:20:57;;;;;;;3.35;1.83;;;;;;;;;;10248538;28;20412;-84
2023/02/03 15:26:02;;;;;;;1.30;0.80;;;;;;;;;;10250430;28;20049;-85
2023/02/03 15:31:16;;;;;;;0.80;0.80;;;;;;;;;;10251552;28;20042;-87
2023/02/03 15:36:24;;;;;;;1.90;1.40;;;;;;;;;;10261512;28;20169;-85
2023/02/03 15:41:28;;;;;;;2.63;2.00;;;;;;;;;;10251325;28;20561;-85
2023/02/03 15:46:38;;;;;;;2.38;1.58;;;;;;;;;;10264698;28;20046;-90
2023/02/03 15:52:13;;;;;;;1.95;1.67;;;;;;;;;;10268702;28;20039;-84
2023/02/03 15:57:20;;;;;;;1.70;1.27;;;;;;;;;;10067995;29;20132;-82
2023/02/03 16:02:30;;;;;;;1.38;1.27;;;;;;;;;;10117169;29;20048;-85
2023/02/03 16:07:33;;;;;;;2.80;1.80;;;;;;;;;;10107638;29;20606;-84
2023/02/03 16:12:37;;;;;;;1.50;1.40;;;;;;;;;;10108800;29;20055;-82
2023/02/03 16:17:42;;;;;;;1.85;1.70;;;;;;;;;;10122446;29;20151;-84
2023/02/03 16:22:58;;;;;;;2.22;1.48;;;;;;;;;;10108936;29;20454;-82
2023/02/03 16:54:57;;;;;;;1.92;1.42;;;;;;;;;;10107105;29;20072;-85
2023/02/03 17:00:01;;;;;;;3.28;1.77;;;;;;;;;;10090445;29;20070;-84
2023/02/03 17:05:08;;;;;;;;;;;;;;;;;;10070091;29;20075;-84
2023/02/03 17:10:12;;;;;;;3.45;1.88;;;;;;;;;;10069040;29;20317;-84
2023/02/03 17:15:15;;;;;;;2.63;1.30;;;;;;;;;;10070671;29;20051;-84
2023/02/03 17:20:20;;;;;;;3.17;1.48;;;;;;;;;;10061741;29;20048;-84
2023/02/03 17:25:23;;;;;;;4.78;1.55;;;;;;;;;;10063894;29;20051;-84
2023/02/03 17:30:27;;;;;;;2.97;1.30;;;;;;;;;;10079887;29;20045;-83
2023/02/03 17:35:32;;;;;;;3.05;1.70;;;;;;;;;;10087232;29;20057;-85
2023/02/03 17:40:39;;;;;;;3.40;1.73;;;;;;;;;;10103141;29;20071;-84
2023/02/03 17:46:00;;;;;;;3.15;1.77;;;;;;;;;;10076632;29;20090;-83
2023/02/03 17:51:24;;;;;;;5.70;3.90;;;;;;;;;;10095066;29;20194;-83
2023/02/03 17:56:48;;;;;;;3.22;2.40;;;;;;;;;;10114177;29;20759;-84
2023/02/03 18:01:52;;;;;;;5.67;3.53;;;;;;;;;;10103268;29;20236;-82
2023/02/03 18:06:57;;;;;;;3.75;2.20;;;;;;;;;;10120122;29;20056;-84
2023/02/03 18:12:01;;;;;;;5.53;2.33;;;;;;;;;;10117201;29;20084;-83
2023/02/03 18:17:04;;;;;;;1.30;0.95;;;;;;;;;;10100874;29;20044;-84
2023/02/03 18:22:09;;;;;;;3.30;1.52;;;;;;;;;;10102618;29;20041;-84
2023/02/03 18:27:16;;;;;;;2.55;1.38;;;;;;;;;;10121247;29;20044;-84
2023/02/03 18:32:19;;;;;;;2.15;1.50;;;;;;;;;;10102902;29;20060;-81
2023/02/03 18:37:24;;;;;;;2.40;1.50;;;;;;;;;;10096969;29;20049;-81
2023/02/03 18:42:28;;;;;;;5.50;3.40;;;;;;;;;;10112638;29;20079;-82
2023/02/03 18:47:31;;;;;;;4.63;2.97;;;;;;;;;;10113678;29;20110;-81
2023/02/03 18:52:36;;;;;;;9.23;3.95;;;;;;;;;;10097006;29;20048;-79
2023/02/03 18:57:40;;;;;;;10.70;3.70;;;;;;;;;;10113259;29;20049;-80
2023/02/03 19:02:43;;;;;;;11.05;4.00;;;;;;;;;;10097901;29;20044;-80
2023/02/03 19:07:48;;;;;;;10.77;3.03;;;;;;;;;;10100714;29;20055;-82
2023/02/03 19:12:52;;;;;;;9.38;2.60;;;;;;;;;;10100609;29;20043;-80
2023/02/03 19:17:55;;;;;;;10.52;2.53;;;;;;;;;;10119267;29;20044;-80
2023/02/03 19:23:02;;;;;;;12.80;3.42;;;;;;;;;;10107771;29;20040;-81
2023/02/03 19:28:07;;;;;;;9.27;2.90;;;;;;;;;;10119361;29;20051;-81
2023/02/03 19:33:16;;;;;;;15.23;3.92;;;;;;;;;;10121533;29;20661;-80
2023/02/03 19:38:21;;;;;;;12.90;4.78;;;;;;;;;;10126849;29;20064;-84
2023/02/03 19:43:25;;;;;;;8.88;3.15;;;;;;;;;;10117901;29;20442;-83
2023/02/03 19:48:28;;;;;;;10.35;3.22;;;;;;;;;;10131655;29;20067;-83
2023/02/03 19:53:34;;;;;;;8.75;2.95;;;;;;;;;;10120545;29;20502;-84
2023/02/03 19:58:38;;;;;;;15.00;3.95;;;;;;;;;;10140785;29;20059;-83
2023/02/03 20:03:42;;;;;;;15.88;5.28;;;;;;;;;;10167967;29;20052;-84
2023/02/03 20:08:47;;;;;;;14.15;5.10;;;;;;;;;;10162163;29;20048;-85
2023/02/03 20:13:51;;;;;;;10.30;5.47;;;;;;;;;;10156937;29;20048;-84
2023/02/03 20:18:55;;;;;;;14.95;5.22;;;;;;;;;;10154152;29;20060;-84
2023/02/03 20:23:59;;;;;;;12.65;5.55;;;;;;;;;;10151084;29;20043;-84
2023/02/03 20:29:03;;;;;;;14.77;4.40;;;;;;;;;;10145399;29;20048;-84
2023/02/03 20:34:07;;;;;;;16.58;4.57;;;;;;;;;;10164928;29;20055;-84
2023/02/03 20:39:18;;;;;;;9.68;3.30;;;;;;;;;;10171283;29;20048;-85
2023/02/03 20:44:22;;;;;;;10.98;3.97;;;;;;;;;;10160744;29;20075;-85
2023/02/03 20:49:26;;;;;;;13.77;3.17;;;;;;;;;;10161455;29;20067;-83
2023/02/03 20:54:31;;;;;;;15.70;4.10;;;;;;;;;;10148955;29;20049;-85
2023/02/03 20:59:35;;;;;;;13.75;3.92;;;;;;;;;;10134028;29;20059;-83
2023/02/03 21:10:02;;;;;;;16.80;4.80;;;;;;;;;;10123122;29;20051;-85
2023/02/03 21:15:18;;;;;;;12.75;4.40;;;;;;;;;;10131054;29;20050;-81
2023/02/03 21:20:26;;;;;;;12.95;4.03;;;;;;;;;;10112877;29;20068;-82
2023/02/03 21:25:33;;;;;;;17.40;4.70;;;;;;;;;;10116258;29;20136;-82
2023/02/03 21:30:36;;;;;;;11.48;3.60;;;;;;;;;;10111173;29;20490;-81
2023/02/03 21:35:40;;;;;;;17.83;4.65;;;;;;;;;;10100902;29;20506;-81
2023/02/03 21:40:44;;;;;;;9.10;3.33;;;;;;;;;;10108516;29;20400;-81
2023/02/03 21:45:48;;;;;;;16.02;4.03;;;;;;;;;;10114853;29;20051;-82
2023/02/03 21:50:52;;;;;;;17.48;4.90;;;;;;;;;;10143951;29;20056;-82
2023/02/03 21:55:59;;;;;;;15.10;4.65;;;;;;;;;;10140994;29;20040;-81
2023/02/03 22:01:05;;;;;;;9.45;3.47;;;;;;;;;;10140035;29;20044;-82
2023/02/03 22:06:24;;;;;;;17.25;4.63;;;;;;;;;;10153512;29;20509;-81
2023/02/03 22:11:31;;;;;;;8.95;3.30;;;;;;;;;;10139944;29;20107;-82
2023/02/03 22:16:35;;;;;;;16.65;4.68;;;;;;;;;;10139681;29;20748;-82
2023/02/03 22:21:39;;;;;;;10.07;3.50;;;;;;;;;;10134890;29;20048;-82
2023/02/03 22:26:43;;;;;;;8.65;3.53;;;;;;;;;;10145473;29;20052;-82
2023/02/03 22:31:47;;;;;;;15.93;4.18;;;;;;;;;;10150040;29;20501;-84
2023/02/03 22:36:50;;;;;;;13.40;4.18;;;;;;;;;;10153132;29;20044;-85
2023/02/03 22:41:55;;;;;;;10.35;3.53;;;;;;;;;;10152348;29;20058;-83
2023/02/03 22:46:59;;;;;;;13.45;4.68;;;;;;;;;;10124108;29;20406;-84
2023/02/03 22:52:02;;;;;;;10.13;3.42;;;;;;;;;;10130520;29;20051;-84
2023/02/03 22:57:07;;;;;;;10.48;3.03;;;;;;;;;;10142670;29;20536;-84
2023/02/03 23:02:10;;;;;;;6.47;3.10;;;;;;;;;;10148454;29;20421;-82
2023/02/03 23:07:13;;;;;;;16.10;4.35;;;;;;;;;;10153728;29;20037;-84
2023/02/03 23:12:18;;;;;;;8.02;2.83;;;;;;;;;;10133487;29;20055;-84
2023/02/03 23:17:22;;;;;;;9.23;2.70;;;;;;;;;;10125139;29;20048;-83
2023/02/03 23:22:25;;;;;;;8.80;2.50;;;;;;;;;;10136801;29;20048;-84
2023/02/03 23:27:29;;;;;;;11.10;2.92;;;;;;;;;;10128547;29;20052;-80
2023/02/03 23:32:33;;;;;;;8.85;2.35;;;;;;;;;;10132609;29;20127;-83
2023/02/03 23:37:37;;;;;;;8.00;2.83;;;;;;;;;;10144548;29;20116;-81
2023/02/03 23:42:41;;;;;;;12.88;2.83;;;;;;;;;;10131193;29;20579;-82
2023/02/03 23:47:46;;;;;;;14.15;3.15;;;;;;;;;;10153931;29;20047;-81
2023/02/03 23:52:49;;;;;;;6.72;1.75;;;;;;;;;;10134183;29;20071;-81
2023/02/03 23:57:53;;;;;;;8.65;2.28;;;;;;;;;;10146789;29;20040;-81
